Time;durP1;ratioP1;P1;durP2;ratioP2;P2;SDS_P1;SDS_P2;PMS_P1;PMS_P2;Temp;Humidity;BMP_temperature;BMP_pressure;BME280_temperature;BME280_humidity;BME280_pressure;Samples;Min_cycle;Max_cycle;Signal;HPM_P1;HPM_P2
2024/04/18 00:02:10;;;;;;;2.75;1.45;;;21.30;60.20;;;;;;5338737;26;86783;-68
2024/04/18 00:04:36;;;;;;;1.90;0.95;;;21.30;60.20;;;;;;5369914;26;86565;-68
2024/04/18 00:07:02;;;;;;;2.17;1.00;;;21.30;60.30;;;;;;5338144;26;87636;-68
2024/04/18 00:09:30;;;;;;;3.97;0.90;;;21.30;60.30;;;;;;5368461;26;86214;-68
2024/04/18 00:11:58;;;;;;;3.72;1.10;;;21.20;60.40;;;;;;5405039;26;85911;-69
2024/04/18 00:14:24;;;;;;;1.92;1.17;;;21.20;60.30;;;;;;5337712;26;87484;-68
2024/04/18 00:16:49;;;;;;;3.70;1.00;;;21.20;60.20;;;;;;5369395;26;86721;-68
2024/04/18 00:19:16;;;;;;;5.05;1.10;;;21.30;60.10;;;;;;5369940;26;85493;-68
2024/04/18 00:21:42;;;;;;;1.20;0.90;;;21.20;60.10;;;;;;5364482;26;86069;-69
2024/04/18 00:24:08;;;;;;;1.52;0.85;;;21.10;60.10;;;;;;5339135;26;87163;-68
2024/04/18 00:26:34;;;;;;;1.50;0.80;;;21.20;60.40;;;;;;5369994;26;86653;-68
2024/04/18 00:28:59;;;;;;;1.40;1.13;;;21.20;60.40;;;;;;5374871;25;86134;-69
2024/04/18 00:31:27;;;;;;;1.08;1.00;;;21.20;60.20;;;;;;5369590;26;86525;-68
2024/04/18 00:33:52;;;;;;;1.05;0.95;;;21.20;60.30;;;;;;5368695;26;85757;-68
2024/04/18 00:36:18;;;;;;;1.42;1.02;;;21.10;60.20;;;;;;5368940;26;86531;-68
2024/04/18 00:38:44;;;;;;;2.88;1.25;;;21.20;60.20;;;;;;5370119;26;86992;-68
2024/04/18 00:41:11;;;;;;;1.38;1.05;;;21.10;60.20;;;;;;5366398;26;86923;-68
2024/04/18 00:43:38;;;;;;;2.85;1.55;;;21.10;60.10;;;;;;5370466;26;86884;-68
2024/04/18 00:46:05;;;;;;;1.63;0.98;;;21.10;60.20;;;;;;5370045;26;86798;-68
2024/04/18 00:48:31;;;;;;;2.30;1.00;;;21.10;60.20;;;;;;5391639;26;86286;-68
2024/04/18 00:51:00;;;;;;;4.85;1.42;;;21.10;60.20;;;;;;5368712;26;85727;-68
2024/04/18 00:53:26;;;;;;;1.23;1.00;;;21.10;60.00;;;;;;5330787;26;87743;-68
2024/04/18 00:55:53;;;;;;;1.13;0.90;;;21.10;60.10;;;;;;5366160;26;86547;-68
2024/04/18 00:58:19;;;;;;;2.58;1.35;;;21.00;60.00;;;;;;5331672;26;85945;-68
2024/04/18 01:00:50;;;;;;;3.67;0.73;;;21.00;60.10;;;;;;5369131;26;86054;-68
2024/04/18 01:03:18;;;;;;;1.95;1.30;;;21.00;60.00;;;;;;5335643;26;87802;-68
2024/04/18 01:05:44;;;;;;;1.75;1.00;;;21.00;60.70;;;;;;5369617;26;86113;-68
2024/04/18 01:08:10;;;;;;;2.08;1.30;;;21.00;60.20;;;;;;5338549;26;85797;-68
2024/04/18 01:10:36;;;;;;;2.50;1.00;;;21.00;60.20;;;;;;5337331;26;86268;-68
2024/04/18 01:13:02;;;;;;;2.05;0.95;;;21.00;60.20;;;;;;5337271;26;86548;-68
2024/04/18 01:15:29;;;;;;;2.70;1.40;;;20.90;60.20;;;;;;5338072;26;87460;-68
2024/04/18 01:17:55;;;;;;;1.55;0.98;;;20.90;60.10;;;;;;5369852;26;86040;-68
2024/04/18 01:20:22;;;;;;;1.80;1.00;;;20.90;60.20;;;;;;5367803;26;85564;-68
2024/04/18 01:22:48;;;;;;;1.70;1.02;;;20.90;60.20;;;;;;5359709;26;86537;-68
2024/04/18 01:25:14;;;;;;;1.33;0.80;;;20.90;60.10;;;;;;5378225;26;85764;-68
2024/04/18 01:27:40;;;;;;;3.38;1.50;;;20.90;60.10;;;;;;5369364;26;87061;-68
2024/04/18 01:30:06;;;;;;;1.65;1.25;;;20.90;60.00;;;;;;5337655;26;86431;-68
2024/04/18 01:32:35;;;;;;;1.48;0.90;;;20.90;60.30;;;;;;5367903;26;86719;-68
2024/04/18 01:35:02;;;;;;;1.38;0.85;;;20.80;60.30;;;;;;5368459;26;86527;-68
2024/04/18 01:37:29;;;;;;;1.60;0.95;;;20.80;60.30;;;;;;5336779;26;86403;-68
2024/04/18 01:39:55;;;;;;;1.20;0.88;;;20.80;60.20;;;;;;5370903;26;86366;-68
2024/04/18 01:42:20;;;;;;;2.95;1.20;;;20.80;60.40;;;;;;5403066;25;86720;-68
2024/04/18 01:44:47;;;;;;;2.58;0.80;;;20.80;60.40;;;;;;5394495;26;86460;-68
2024/04/18 01:47:13;;;;;;;1.35;0.98;;;20.80;60.30;;;;;;5336103;26;85803;-68
2024/04/18 01:49:39;;;;;;;1.42;0.98;;;20.70;60.60;;;;;;5336931;26;86944;-68
2024/04/18 01:52:06;;;;;;;1.40;1.15;;;20.70;60.30;;;;;;5368367;26;87439;-68
2024/04/18 01:54:32;;;;;;;1.40;0.95;;;20.70;60.40;;;;;;5368168;26;86771;-68
2024/04/18 01:56:59;;;;;;;2.88;1.00;;;20.80;60.30;;;;;;5369720;26;85648;-69
2024/04/18 01:59:25;;;;;;;1.10;0.85;;;20.70;60.30;;;;;;5337430;26;86957;-68
2024/04/18 02:01:50;;;;;;;1.00;0.88;;;20.70;60.50;;;;;;5368495;26;86116;-68
2024/04/18 02:04:17;;;;;;;1.40;1.00;;;20.70;60.40;;;;;;5369758;26;85811;-68
2024/04/18 02:06:44;;;;;;;1.45;1.00;;;20.70;60.30;;;;;;5366325;26;85801;-68
2024/04/18 02:09:10;;;;;;;2.00;1.02;;;20.70;60.10;;;;;;5368037;26;85951;-68
2024/04/18 02:11:39;;;;;;;1.50;0.95;;;20.70;60.30;;;;;;5369066;26;86401;-68
2024/04/18 02:14:06;;;;;;;1.05;0.90;;;20.60;60.50;;;;;;5368503;26;86469;-68
2024/04/18 02:16:32;;;;;;;1.95;1.20;;;20.60;60.50;;;;;;5336333;26;86832;-68
2024/04/18 02:18:58;;;;;;;0.73;0.70;;;20.60;60.50;;;;;;5336566;26;85896;-68
2024/04/18 02:21:24;;;;;;;1.17;1.00;;;20.60;60.50;;;;;;5332205;26;87333;-68
2024/04/18 02:23:51;;;;;;;2.67;0.93;;;20.60;60.60;;;;;;5337213;26;87261;-68
2024/04/18 02:26:17;;;;;;;1.38;1.00;;;20.60;60.40;;;;;;5365487;26;85480;-68
2024/04/18 02:28:43;;;;;;;1.30;0.80;;;20.60;60.40;;;;;;5367010;26;86450;-68
2024/04/18 02:31:08;;;;;;;1.55;1.00;;;20.60;60.40;;;;;;5336577;26;87543;-68
2024/04/18 02:33:34;;;;;;;1.77;1.05;;;20.60;60.30;;;;;;5368970;26;86840;-68
2024/04/18 02:36:00;;;;;;;0.63;0.60;;;20.60;60.60;;;;;;5400055;26;86186;-68
2024/04/18 02:38:28;;;;;;;1.35;0.88;;;20.50;60.50;;;;;;5369733;26;86103;-68
2024/04/18 02:41:07;;;;;;;1.67;0.90;;;20.60;60.40;;;;;;5391708;26;87581;-68
2024/04/18 02:43:34;;;;;;;1.20;1.00;;;20.60;60.40;;;;;;5367134;26;87464;-68
2024/04/18 02:46:00;;;;;;;1.73;1.05;;;20.60;60.50;;;;;;5335788;26;86025;-68
2024/04/18 02:48:27;;;;;;;1.23;1.02;;;20.50;60.40;;;;;;5366632;26;86673;-68
2024/04/18 02:50:52;;;;;;;1.88;0.90;;;20.50;60.50;;;;;;5368597;26;87207;-68
2024/04/18 02:53:18;;;;;;;1.63;0.90;;;20.50;60.40;;;;;;5335981;26;86860;-68
2024/04/18 02:55:44;;;;;;;1.50;0.90;;;20.50;60.40;;;;;;5367680;26;86085;-68
2024/04/18 02:58:10;;;;;;;2.38;0.93;;;20.50;60.40;;;;;;5367398;26;85631;-69
2024/04/18 03:00:35;;;;;;;1.40;1.00;;;20.50;60.40;;;;;;5335515;26;89206;-68
2024/04/18 03:03:02;;;;;;;1.05;0.70;;;20.50;60.40;;;;;;5335636;26;86394;-68
2024/04/18 03:05:29;;;;;;;0.95;0.80;;;20.40;60.30;;;;;;5334642;26;86820;-68
2024/04/18 03:07:59;;;;;;;2.60;1.25;;;20.40;60.20;;;;;;5362519;26;86245;-68
2024/04/18 03:10:24;;;;;;;;;;;20.50;60.40;;;;;;5366442;26;85963;-68
2024/04/18 03:12:54;;;;;;;1.58;0.70;;;20.50;60.10;;;;;;5365140;26;86548;-68
2024/04/18 03:15:21;;;;;;;1.92;1.00;;;20.50;60.00;;;;;;5365920;26;86226;-68
2024/04/18 03:17:56;;;;;;;2.20;1.10;;;20.40;60.20;;;;;;5374005;26;86489;-68
2024/04/18 03:20:22;;;;;;;1.02;0.80;;;20.40;59.90;;;;;;5361112;26;89201;-68
2024/04/18 03:22:49;;;;;;;1.35;0.70;;;20.40;60.20;;;;;;5368829;26;85959;-68
2024/04/18 03:25:15;;;;;;;0.60;0.60;;;20.40;60.30;;;;;;5398292;26;86041;-68
2024/04/18 03:27:41;;;;;;;1.25;1.02;;;20.40;60.00;;;;;;5368912;26;86207;-68
2024/04/18 03:30:07;;;;;;;1.35;0.80;;;20.30;60.10;;;;;;5367776;26;87045;-68
2024/04/18 03:32:35;;;;;;;1.08;0.98;;;20.30;60.10;;;;;;5334643;26;87088;-68
2024/04/18 03:35:01;;;;;;;0.95;0.80;;;20.40;59.90;;;;;;5394405;25;86449;-68
2024/04/18 03:37:27;;;;;;;3.28;0.80;;;20.40;60.10;;;;;;5388584;26;85603;-68
2024/04/18 03:39:53;;;;;;;0.95;0.68;;;20.30;60.20;;;;;;5337092;26;91112;-68
2024/04/18 03:42:18;;;;;;;2.00;1.23;;;20.30;60.20;;;;;;5368463;26;86627;-68
2024/04/18 03:44:44;;;;;;;1.35;1.05;;;20.40;60.20;;;;;;5368999;26;85912;-68
2024/04/18 03:47:10;;;;;;;1.67;0.95;;;20.30;60.20;;;;;;5374502;26;86039;-68
2024/04/18 03:49:36;;;;;;;1.63;0.88;;;20.30;60.10;;;;;;5361843;26;86122;-68
2024/04/18 03:52:02;;;;;;;1.88;0.95;;;20.30;60.20;;;;;;5342269;26;88699;-68
2024/04/18 03:54:27;;;;;;;1.17;0.88;;;20.30;59.90;;;;;;5403876;26;86381;-68
2024/04/18 03:56:53;;;;;;;1.40;0.73;;;20.30;59.90;;;;;;5404439;26;85822;-68
2024/04/18 03:59:19;;;;;;;0.93;0.73;;;20.30;59.90;;;;;;5370896;26;88026;-68
2024/04/18 04:01:44;;;;;;;1.33;0.93;;;20.30;60.20;;;;;;5404982;26;86501;-68
2024/04/18 04:04:10;;;;;;;0.77;0.70;;;20.30;60.00;;;;;;5373565;26;87417;-68
2024/04/18 04:06:36;;;;;;;1.45;0.73;;;20.30;60.10;;;;;;5403506;26;85816;-68
2024/04/18 04:09:03;;;;;;;1.30;0.90;;;20.30;60.20;;;;;;5404130;26;87362;-69
2024/04/18 04:11:29;;;;;;;1.38;0.95;;;20.30;60.10;;;;;;5371841;26;86690;-69
2024/04/18 04:13:57;;;;;;;1.35;0.70;;;20.20;60.10;;;;;;5360588;26;86273;-68
2024/04/18 04:16:22;;;;;;;1.25;0.90;;;20.20;60.30;;;;;;5326262;26;87043;-68
2024/04/18 04:18:52;;;;;;;1.02;0.82;;;20.20;60.30;;;;;;5365680;26;87593;-68
2024/04/18 04:21:19;;;;;;;0.85;0.70;;;20.20;60.40;;;;;;5362769;26;87344;-68
2024/04/18 04:23:46;;;;;;;2.40;1.20;;;20.20;60.40;;;;;;5369588;26;86023;-69
2024/04/18 04:26:13;;;;;;;1.48;0.90;;;20.20;60.40;;;;;;5336525;26;85993;-69
2024/04/18 04:28:41;;;;;;;1.48;1.02;;;20.20;60.20;;;;;;5340762;26;87216;-68
2024/04/18 04:31:07;;;;;;;1.30;0.93;;;20.10;60.10;;;;;;5356364;26;87449;-68
2024/04/18 04:33:33;;;;;;;0.63;0.63;;;20.20;60.10;;;;;;5394607;26;85942;-68
2024/04/18 04:35:59;;;;;;;1.08;0.70;;;20.20;60.00;;;;;;5339259;26;86339;-68
2024/04/18 04:38:26;;;;;;;2.55;1.27;;;20.20;60.10;;;;;;5368726;26;85889;-68
2024/04/18 04:40:52;;;;;;;1.00;0.85;;;20.20;60.00;;;;;;5335113;26;87092;-68
2024/04/18 04:43:17;;;;;;;1.30;0.77;;;20.20;60.00;;;;;;5368718;26;86995;-68
2024/04/18 04:45:43;;;;;;;0.57;0.50;;;20.20;59.90;;;;;;5368660;26;87256;-68
2024/04/18 04:48:10;;;;;;;0.68;0.68;;;20.20;59.90;;;;;;5370880;26;86052;-68
2024/04/18 04:50:40;;;;;;;1.27;0.80;;;20.20;60.00;;;;;;5337398;26;86679;-68
2024/04/18 04:53:07;;;;;;;3.35;0.68;;;20.10;59.90;;;;;;5336345;26;85647;-68
2024/04/18 04:55:33;;;;;;;0.73;0.70;;;20.10;60.00;;;;;;5363221;26;85998;-68
2024/04/18 04:57:58;;;;;;;1.38;0.90;;;20.10;59.90;;;;;;5368565;26;86248;-68
2024/04/18 05:00:24;;;;;;;1.40;0.80;;;20.10;60.00;;;;;;5369264;26;86975;-68
2024/04/18 05:02:50;;;;;;;0.80;0.80;;;20.10;60.20;;;;;;5370648;26;86273;-69
2024/04/18 05:05:16;;;;;;;0.68;0.55;;;20.10;60.10;;;;;;5338361;26;86184;-68
2024/04/18 05:07:42;;;;;;;1.27;1.02;;;20.10;60.10;;;;;;5335720;26;88347;-68
2024/04/18 05:10:07;;;;;;;1.05;0.95;;;20.10;60.10;;;;;;5371181;26;87396;-68
2024/04/18 05:12:34;;;;;;;2.05;1.00;;;20.10;60.20;;;;;;5369790;26;85897;-68
2024/04/18 05:15:01;;;;;;;1.00;0.80;;;20.10;60.20;;;;;;5368945;26;85805;-68
2024/04/18 05:17:28;;;;;;;0.93;0.82;;;20.10;60.00;;;;;;5367735;26;85820;-68
2024/04/18 05:19:54;;;;;;;1.08;0.88;;;20.10;60.00;;;;;;5367620;26;85837;-68
2024/04/18 05:22:20;;;;;;;0.60;0.60;;;20.10;60.00;;;;;;5336622;26;85945;-68
2024/04/18 05:24:45;;;;;;;1.23;0.90;;;20.10;60.00;;;;;;5336685;26;86092;-68
2024/04/18 05:27:12;;;;;;;1.15;1.00;;;20.10;59.90;;;;;;5392146;25;87375;-68
2024/04/18 05:32:22;;;;;;;2.00;1.00;;;20.10;59.60;;;;;;5358873;26;86488;-69
2024/04/18 05:34:48;;;;;;;1.00;0.90;;;20.20;59.70;;;;;;5336149;26;87244;-68
2024/04/18 05:37:14;;;;;;;1.10;0.90;;;20.10;59.60;;;;;;5335314;26;87946;-68
2024/04/18 05:39:40;;;;;;;0.82;0.73;;;20.10;59.60;;;;;;5337729;26;86284;-69
2024/04/18 05:42:06;;;;;;;1.38;0.77;;;20.10;59.70;;;;;;5337525;26;86201;-68
2024/04/18 05:44:41;;;;;;;1.08;0.82;;;20.10;59.70;;;;;;5335275;26;86650;-68
2024/04/18 05:47:08;;;;;;;1.42;1.00;;;20.10;59.80;;;;;;5368202;26;86672;-68
2024/04/18 05:49:34;;;;;;;2.45;0.98;;;20.00;59.60;;;;;;5368840;26;86395;-68
2024/04/18 05:52:00;;;;;;;3.42;1.58;;;20.10;59.90;;;;;;5332417;26;87906;-68
2024/04/18 05:54:26;;;;;;;0.82;0.77;;;20.10;59.60;;;;;;5334000;26;86710;-68
2024/04/18 05:56:52;;;;;;;0.93;0.88;;;20.30;59.50;;;;;;5366712;26;87678;-69
2024/04/18 05:59:18;;;;;;;0.73;0.73;;;20.50;59.00;;;;;;5326811;26;88190;-68
2024/04/18 06:01:43;;;;;;;2.42;1.10;;;20.70;58.50;;;;;;5364032;26;86321;-68
2024/04/18 06:04:09;;;;;;;1.15;0.80;;;20.90;58.30;;;;;;5368784;26;85454;-74
2024/04/18 06:06:35;;;;;;;1.13;1.02;;;21.10;58.20;;;;;;5378662;25;85381;-68
2024/04/18 06:09:02;;;;;;;1.00;0.60;;;21.20;58.00;;;;;;5369170;26;85820;-68
2024/04/18 06:11:42;;;;;;;1.20;1.10;;;21.50;57.60;;;;;;5367874;26;85841;-68
2024/04/18 06:14:08;;;;;;;1.00;0.90;;;21.70;57.20;;;;;;5364453;26;85771;-68
2024/04/18 06:16:36;;;;;;;1.48;1.02;;;21.90;56.80;;;;;;5335673;26;87332;-68
2024/04/18 06:19:02;;;;;;;3.85;1.70;;;22.10;56.50;;;;;;5347811;26;86057;-68
2024/04/18 06:21:28;;;;;;;1.15;1.05;;;22.00;52.40;;;;;;5365125;26;86780;-68
2024/04/18 06:23:55;;;;;;;1.77;1.20;;;22.00;55.10;;;;;;5370374;26;86077;-68
2024/04/18 06:26:21;;;;;;;3.80;1.30;;;22.00;54.70;;;;;;5351901;26;86184;-67
2024/04/18 06:28:47;;;;;;;0.95;0.88;;;22.20;54.60;;;;;;5364298;26;86853;-68
2024/04/18 06:31:16;;;;;;;2.30;0.80;;;22.30;54.30;;;;;;5367176;26;86239;-68
2024/04/18 06:33:42;;;;;;;0.82;0.65;;;22.40;54.00;;;;;;5363027;26;86197;-68
2024/04/18 06:36:08;;;;;;;2.40;1.05;;;22.50;53.50;;;;;;5363301;26;85870;-68
2024/04/18 06:38:36;;;;;;;3.17;0.77;;;22.60;53.10;;;;;;5332324;26;86735;-68
2024/04/18 06:41:04;;;;;;;2.90;1.70;;;22.60;52.90;;;;;;5334625;26;85896;-68
2024/04/18 06:43:31;;;;;;;2.67;1.27;;;22.60;52.60;;;;;;5334092;26;89499;-69
2024/04/18 06:45:57;;;;;;;1.63;1.08;;;22.70;52.70;;;;;;5362550;26;86929;-68
2024/04/18 06:48:23;;;;;;;4.53;1.00;;;22.70;52.50;;;;;;5332190;26;88447;-68
2024/04/18 06:50:49;;;;;;;4.22;1.42;;;22.70;52.20;;;;;;5347802;26;85902;-68
2024/04/18 06:53:15;;;;;;;2.00;1.15;;;22.70;52.00;;;;;;5351494;26;86197;-69
2024/04/18 06:55:42;;;;;;;2.03;1.00;;;22.60;52.00;;;;;;5371388;26;86386;-68
2024/04/18 06:58:08;;;;;;;1.92;0.88;;;22.60;52.20;;;;;;5331696;26;89583;-68
2024/04/18 07:00:37;;;;;;;1.33;0.82;;;22.70;52.50;;;;;;5335416;26;86088;-68
2024/04/18 07:03:06;;;;;;;3.50;1.30;;;22.70;52.50;;;;;;5374993;25;85248;-68
2024/04/18 07:05:32;;;;;;;1.93;0.93;;;22.80;52.70;;;;;;5330142;26;89629;-67
2024/04/18 07:07:58;;;;;;;1.10;0.70;;;22.80;52.80;;;;;;5332377;26;86640;-68
2024/04/18 07:10:24;;;;;;;4.63;1.17;;;22.80;52.80;;;;;;5371637;26;86709;-69
2024/04/18 07:12:50;;;;;;;3.90;1.30;;;22.80;52.80;;;;;;5361569;26;85818;-68
2024/04/18 07:15:16;;;;;;;5.07;1.67;;;22.80;52.70;;;;;;5368817;26;87091;-68
2024/04/18 07:17:43;;;;;;;5.57;1.50;;;22.90;52.90;;;;;;5338833;26;86607;-68
2024/04/18 07:20:09;;;;;;;9.63;1.83;;;22.90;52.30;;;;;;5395169;25;86005;-68
2024/04/18 07:22:37;;;;;;;7.15;1.92;;;22.90;51.80;;;;;;5385867;26;86748;-64
2024/04/18 07:25:04;;;;;;;5.22;1.50;;;22.90;52.00;;;;;;5364248;26;86409;-68
2024/04/18 07:27:30;;;;;;;6.43;2.28;;;22.90;52.10;;;;;;5363585;26;85494;-69
2024/04/18 07:29:56;;;;;;;7.47;1.95;;;23.00;52.10;;;;;;5335937;26;86225;-68
2024/04/18 07:32:22;;;;;;;5.70;1.48;;;23.00;52.00;;;;;;5367861;26;86816;-68
2024/04/18 07:34:48;;;;;;;3.72;1.50;;;23.00;51.90;;;;;;5366725;26;88113;-68
2024/04/18 07:37:13;;;;;;;3.33;1.33;;;23.10;52.10;;;;;;5368714;26;86842;-68
2024/04/18 07:39:40;;;;;;;5.30;1.42;;;23.10;52.10;;;;;;5368811;26;86434;-68
2024/04/18 07:42:06;;;;;;;5.20;1.40;;;23.10;52.00;;;;;;5337350;26;85756;-69
2024/04/18 07:44:32;;;;;;;4.70;1.52;;;23.10;52.30;;;;;;5336845;26;87417;-68
2024/04/18 07:46:58;;;;;;;5.22;1.45;;;23.20;52.20;;;;;;5368500;26;86529;-68
2024/04/18 07:49:24;;;;;;;6.78;1.85;;;23.20;52.30;;;;;;5369126;26;85663;-69
2024/04/18 07:51:51;;;;;;;5.60;1.70;;;23.10;52.30;;;;;;5341378;26;84699;-68
2024/04/18 07:54:20;;;;;;;9.00;1.63;;;23.10;52.30;;;;;;5364048;26;86717;-69
2024/04/18 07:56:45;;;;;;;3.83;1.65;;;23.10;52.60;;;;;;5368123;26;86874;-68
2024/04/18 07:59:13;;;;;;;3.55;1.25;;;23.00;52.60;;;;;;5344623;26;87304;-68
2024/04/18 08:01:42;;;;;;;2.97;1.20;;;23.00;52.60;;;;;;5368125;26;86408;-68
2024/04/18 08:04:08;;;;;;;4.82;1.77;;;23.00;52.90;;;;;;5369076;26;86651;-68
2024/04/18 08:06:35;;;;;;;5.35;1.48;;;23.00;52.80;;;;;;5365290;26;85891;-68
2024/04/18 08:09:02;;;;;;;4.53;1.80;;;23.00;53.10;;;;;;5369618;26;85620;-69
2024/04/18 08:11:28;;;;;;;5.80;1.77;;;22.90;53.20;;;;;;5339905;26;86352;-68
2024/04/18 08:13:53;;;;;;;5.18;1.17;;;22.80;51.90;;;;;;5370508;26;88830;-68
2024/04/18 08:16:21;;;;;;;3.88;1.08;;;22.50;50.80;;;;;;5401530;25;87310;-68
2024/04/18 08:18:47;;;;;;;4.65;1.75;;;22.40;52.60;;;;;;5357886;26;86202;-68
2024/04/18 08:21:13;;;;;;;4.13;1.02;;;22.60;52.20;;;;;;5331372;26;86396;-69
2024/04/18 08:23:39;;;;;;;3.53;1.23;;;22.50;51.20;;;;;;5364062;26;88865;-68
2024/04/18 08:26:05;;;;;;;4.07;1.65;;;22.30;51.80;;;;;;5401846;26;87931;-69
2024/04/18 08:28:31;;;;;;;3.05;1.48;;;22.20;52.20;;;;;;5402751;26;86110;-69
2024/04/18 08:30:57;;;;;;;8.15;1.38;;;22.10;52.70;;;;;;5369768;26;85686;-69
2024/04/18 08:33:23;;;;;;;4.82;1.30;;;22.10;53.00;;;;;;5366487;26;89585;-69
2024/04/18 08:35:49;;;;;;;2.88;1.08;;;22.00;53.10;;;;;;5404026;26;86699;-68
2024/04/18 08:38:15;;;;;;;4.72;1.40;;;21.90;53.10;;;;;;5402528;26;86801;-68
2024/04/18 08:40:44;;;;;;;4.38;1.42;;;21.80;53.40;;;;;;5403593;26;86995;-68
2024/04/18 08:43:11;;;;;;;3.83;1.40;;;21.80;54.10;;;;;;5403578;26;86715;-68
2024/04/18 08:45:40;;;;;;;4.43;1.50;;;21.70;53.40;;;;;;5404517;26;87363;-68
2024/04/18 08:48:06;;;;;;;6.13;1.90;;;21.70;53.20;;;;;;5370808;26;86621;-68
2024/04/18 08:50:33;;;;;;;3.47;1.58;;;21.70;52.90;;;;;;5403540;26;86189;-68
2024/04/18 08:53:00;;;;;;;3.75;1.15;;;21.60;53.00;;;;;;5403769;26;87069;-68
2024/04/18 08:55:27;;;;;;;2.30;1.10;;;21.60;53.20;;;;;;5388677;26;86776;-68
2024/04/18 08:58:01;;;;;;;4.28;1.45;;;21.60;52.90;;;;;;5337115;26;86480;-68
2024/04/18 09:00:29;;;;;;;5.43;1.38;;;21.60;53.00;;;;;;5368976;26;85934;-68
2024/04/18 09:02:55;;;;;;;7.43;1.77;;;21.50;53.00;;;;;;5338624;26;88627;-68
2024/04/18 09:05:21;;;;;;;3.03;1.00;;;21.50;52.90;;;;;;5369952;26;85452;-68
2024/04/18 09:07:46;;;;;;;2.67;1.10;;;21.50;52.50;;;;;;5368508;26;86135;-68
2024/04/18 09:10:14;;;;;;;3.90;1.17;;;21.50;52.30;;;;;;5368886;26;86136;-68
2024/04/18 09:12:41;;;;;;;3.10;1.17;;;21.50;52.30;;;;;;5396606;25;87910;-68
2024/04/18 09:15:07;;;;;;;2.83;1.25;;;21.50;52.50;;;;;;5388914;26;86473;-68
2024/04/18 09:17:32;;;;;;;3.30;1.17;;;21.50;52.30;;;;;;5367834;26;86172;-69
2024/04/18 09:19:58;;;;;;;5.05;1.23;;;21.50;52.40;;;;;;5336070;26;86662;-68
2024/04/18 09:22:24;;;;;;;3.17;1.15;;;21.50;53.00;;;;;;5333567;26;89695;-68
2024/04/18 09:24:49;;;;;;;4.70;1.17;;;21.50;52.60;;;;;;5368472;26;86456;-68
2024/04/18 09:27:16;;;;;;;2.13;1.23;;;21.50;52.60;;;;;;5336685;26;85858;-68
2024/04/18 09:29:44;;;;;;;3.70;1.33;;;21.40;52.60;;;;;;5368889;26;87970;-68
2024/04/18 09:32:14;;;;;;;2.47;1.00;;;21.40;52.80;;;;;;5367254;26;86662;-68
2024/04/18 09:34:43;;;;;;;2.88;1.23;;;21.30;52.50;;;;;;5365698;26;87096;-68
2024/04/18 09:37:12;;;;;;;2.53;1.33;;;21.20;50.60;;;;;;5365260;26;87035;-68
2024/04/18 09:39:38;;;;;;;3.92;1.17;;;21.20;48.50;;;;;;5326611;26;87912;-68
2024/04/18 09:42:22;;;;;;;2.92;0.80;;;21.10;51.00;;;;;;5367708;26;86069;-68
2024/04/18 09:44:53;;;;;;;4.40;1.00;;;21.10;51.40;;;;;;5334579;26;92275;-67
2024/04/18 09:47:23;;;;;;;3.53;1.10;;;21.40;50.60;;;;;;5368701;26;85407;-68
2024/04/18 09:49:49;;;;;;;6.53;1.75;;;21.60;50.10;;;;;;5342399;26;85801;-68
2024/04/18 09:52:16;;;;;;;2.85;0.80;;;21.60;49.70;;;;;;5372274;26;86867;-67
2024/04/18 09:54:43;;;;;;;4.80;1.10;;;21.80;49.20;;;;;;5363327;26;86440;-68
2024/04/18 09:57:10;;;;;;;1.75;1.00;;;21.90;49.10;;;;;;5334949;26;86077;-68
2024/04/18 09:59:38;;;;;;;3.35;0.80;;;22.10;48.60;;;;;;5333455;26;86569;-68
2024/04/18 10:02:11;;;;;;;2.53;1.10;;;22.10;48.10;;;;;;5365047;26;87651;-68
2024/04/18 10:04:38;;;;;;;2.75;0.98;;;22.10;48.20;;;;;;5345240;26;90156;-68
2024/04/18 10:07:07;;;;;;;3.53;1.08;;;22.20;47.90;;;;;;5368942;25;87279;-69
2024/04/18 10:09:35;;;;;;;2.75;0.98;;;22.20;47.50;;;;;;5368728;26;85819;-68
2024/04/18 10:12:01;;;;;;;3.00;0.73;;;22.20;47.80;;;;;;5363965;26;88134;-68
2024/04/18 10:14:27;;;;;;;3.72;0.90;;;22.20;47.50;;;;;;5362798;26;86533;-68
2024/04/18 10:16:53;;;;;;;1.73;0.98;;;22.20;47.30;;;;;;5399590;26;85932;-68
2024/04/18 10:19:23;;;;;;;3.90;0.82;;;22.20;47.50;;;;;;5397648;26;85421;-68
2024/04/18 10:21:56;;;;;;;2.25;0.90;;;22.20;47.00;;;;;;5395429;26;86655;-68
2024/04/18 10:24:23;;;;;;;4.13;1.33;;;22.30;47.30;;;;;;5334514;26;87375;-68
2024/04/18 10:27:01;;;;;;;3.47;0.82;;;22.30;47.00;;;;;;5334289;26;86988;-68
2024/04/18 10:29:27;;;;;;;1.48;0.52;;;22.40;46.40;;;;;;5364759;26;85908;-68
2024/04/18 10:32:03;;;;;;;1.40;0.68;;;22.50;46.40;;;;;;5365192;26;85711;-68
2024/04/18 10:34:30;;;;;;;1.90;0.65;;;22.60;46.30;;;;;;5333836;26;86148;-69
2024/04/18 10:37:02;;;;;;;2.70;0.80;;;22.70;46.50;;;;;;5334084;26;86484;-68
2024/04/18 10:39:36;;;;;;;2.95;0.60;;;22.60;46.50;;;;;;5329770;26;87145;-68
2024/04/18 10:42:06;;;;;;;4.22;0.85;;;22.40;46.60;;;;;;5332637;26;87218;-69
2024/04/18 10:44:33;;;;;;;2.70;1.23;;;22.30;47.20;;;;;;5365022;26;86335;-68
2024/04/18 10:46:59;;;;;;;1.50;0.70;;;22.20;47.50;;;;;;5336120;26;86924;-68
2024/04/18 10:49:25;;;;;;;2.17;0.95;;;22.20;47.20;;;;;;5357642;26;86276;-68
2024/04/18 10:51:51;;;;;;;2.15;0.88;;;22.30;47.70;;;;;;5387758;26;87627;-65
2024/04/18 10:54:17;;;;;;;2.45;1.10;;;22.40;47.50;;;;;;5361597;26;87379;-68
2024/04/18 10:56:43;;;;;;;5.18;1.38;;;22.40;47.30;;;;;;5369976;26;86501;-67
2024/04/18 10:59:10;;;;;;;3.97;1.08;;;22.50;47.60;;;;;;5401474;26;86055;-68
2024/04/18 11:01:38;;;;;;;2.90;0.95;;;22.40;48.50;;;;;;5358490;26;89587;-69
2024/04/18 11:04:07;;;;;;;4.63;0.82;;;22.50;48.70;;;;;;5355447;26;87810;-68
2024/04/18 11:06:39;;;;;;;2.25;0.88;;;22.50;47.90;;;;;;5335733;26;87315;-69
2024/04/18 11:09:05;;;;;;;2.95;1.05;;;22.40;46.90;;;;;;5335601;26;85802;-67
2024/04/18 11:11:33;;;;;;;8.15;1.42;;;22.20;48.60;;;;;;5332355;26;87832;-69
2024/04/18 11:14:00;;;;;;;19.73;5.45;;;22.20;49.40;;;;;;5333463;26;89375;-71
2024/04/18 11:16:27;;;;;;;15.68;5.80;;;22.10;49.40;;;;;;5337253;26;86514;-71
2024/04/18 11:18:56;;;;;;;18.88;5.82;;;22.30;49.30;;;;;;5389067;26;85906;-68
2024/04/18 11:21:25;;;;;;;23.90;4.97;;;22.40;49.70;;;;;;5366293;26;86997;-67
2024/04/18 11:23:52;;;;;;;16.83;4.75;;;22.50;49.70;;;;;;5401152;26;86389;-67
2024/04/18 11:26:19;;;;;;;29.38;6.70;;;22.40;49.10;;;;;;5399862;26;85801;-66
2024/04/18 11:28:51;;;;;;;22.40;5.85;;;22.30;49.60;;;;;;5398156;26;86115;-67
2024/04/18 11:31:16;;;;;;;15.23;4.63;;;22.20;49.80;;;;;;5322051;26;87691;-63
2024/04/18 11:33:45;;;;;;;14.77;4.80;;;22.30;50.00;;;;;;5367233;26;85813;-62
2024/04/18 11:36:14;;;;;;;15.75;4.50;;;22.40;49.20;;;;;;5338014;26;86167;-67
2024/04/18 11:38:39;;;;;;;15.00;4.88;;;22.60;49.10;;;;;;5325037;26;87146;-66
2024/04/18 11:41:05;;;;;;;13.25;5.30;;;22.60;49.30;;;;;;5335960;26;88692;-66
2024/04/18 11:43:31;;;;;;;15.68;4.57;;;22.50;49.60;;;;;;5355805;26;87449;-67
2024/04/18 11:45:57;;;;;;;12.68;4.68;;;22.50;50.00;;;;;;5401555;26;86295;-66
2024/04/18 11:48:23;;;;;;;5.32;2.75;;;22.50;49.60;;;;;;5369211;26;87470;-68
2024/04/18 11:50:50;;;;;;;8.77;3.08;;;22.20;48.30;;;;;;5402207;26;86074;-67
2024/04/18 11:53:16;;;;;;;9.65;2.25;;;22.00;48.80;;;;;;5400320;26;86545;-70
2024/04/18 11:55:42;;;;;;;18.83;3.03;;;21.90;49.10;;;;;;5370838;26;85726;-68
2024/04/18 11:58:09;;;;;;;10.80;3.30;;;21.80;50.20;;;;;;5342510;26;87134;-68
2024/04/18 12:00:35;;;;;;;9.23;3.63;;;21.80;50.80;;;;;;5342360;26;88239;-68
2024/04/18 12:03:01;;;;;;;14.73;4.20;;;21.80;50.80;;;;;;5346297;26;87315;-67
2024/04/18 12:05:27;;;;;;;10.63;2.80;;;21.90;51.50;;;;;;5376833;26;87153;-68
2024/04/18 12:07:54;;;;;;;10.95;3.65;;;21.80;51.30;;;;;;5384725;26;86000;-67
2024/04/18 12:10:21;;;;;;;6.97;2.83;;;21.80;51.40;;;;;;5388613;26;87198;-66
2024/04/18 12:12:46;;;;;;;7.97;2.92;;;21.60;51.40;;;;;;5348740;26;89614;-68
2024/04/18 12:15:12;;;;;;;12.23;3.90;;;21.70;52.00;;;;;;5346963;26;86241;-65
2024/04/18 12:17:38;;;;;;;10.40;3.47;;;21.70;67.70;;;;;;5354765;26;86917;-65
2024/04/18 12:20:04;;;;;;;11.57;3.17;;;21.80;72.60;;;;;;5381993;26;86210;-66
2024/04/18 12:22:31;;;;;;;9.27;2.60;;;21.80;76.30;;;;;;5352165;26;86194;-67
2024/04/18 12:24:58;;;;;;;5.95;2.47;;;21.80;75.80;;;;;;5377368;26;85902;-67
2024/04/18 12:27:24;;;;;;;8.73;2.53;;;21.50;65.90;;;;;;5354657;26;86815;-64
2024/04/18 12:29:50;;;;;;;6.05;2.17;;;21.40;74.00;;;;;;5380791;26;87572;-64
2024/04/18 12:32:20;;;;;;;6.65;1.83;;;21.30;72.80;;;;;;5329632;26;86998;-63
2024/04/18 12:34:46;;;;;;;;;;;21.10;59.90;;;;;;5377241;26;86063;-65
2024/04/18 12:37:12;;;;;;;9.75;2.10;;;20.80;50.30;;;;;;5374761;26;86181;-65
2024/04/18 12:39:38;;;;;;;7.63;2.03;;;20.70;50.70;;;;;;5344795;26;87470;-64
2024/04/18 12:42:04;;;;;;;6.20;2.17;;;20.50;48.70;;;;;;5381345;26;86084;-65
2024/04/18 12:44:30;;;;;;;4.53;1.27;;;20.30;46.70;;;;;;5366245;26;86215;-64
2024/04/18 12:46:55;;;;;;;4.38;1.23;;;20.10;46.70;;;;;;5371277;26;86636;-64